Time;durP1;ratioP1;P1;durP2;ratioP2;P2;SDS_P1;SDS_P2;PMS_P1;PMS_P2;Temp;Humidity;BMP_temperature;BMP_pressure;BME280_temperature;BME280_humidity;BME280_pressure;Samples;Min_cycle;Max_cycle;Signal;HPM_P1;HPM_P2
2022/07/29 00:01:58;;;;;;;2.30;1.20;;;;;;;24.64;48.42;99337.97;5076199;28;20138;-69
2022/07/29 00:04:24;;;;;;;1.48;1.00;;;;;;;24.58;49.08;99331.69;5059157;28;20127;-68
2022/07/29 00:06:49;;;;;;;3.33;1.63;;;;;;;24.55;48.87;99347.66;5075721;28;20485;-69
2022/07/29 00:09:15;;;;;;;4.22;1.70;;;;;;;24.50;49.13;99345.72;5059006;28;20044;-68
2022/07/29 00:11:41;;;;;;;5.10;2.25;;;;;;;24.47;49.15;99335.34;5075788;28;20039;-69
2022/07/29 00:14:07;;;;;;;4.55;2.28;;;;;;;24.42;49.56;99334.47;5042889;28;20071;-72
2022/07/29 00:16:33;;;;;;;3.75;2.22;;;;;;;24.34;49.86;99345.78;5075886;28;20040;-72
2022/07/29 00:18:59;;;;;;;3.08;1.80;;;;;;;24.48;49.35;99345.13;5093968;28;20417;-68
2022/07/29 00:21:25;;;;;;;6.53;1.98;;;;;;;24.11;49.27;99337.91;5042270;28;20047;-68
2022/07/29 00:23:51;;;;;;;4.80;1.85;;;;;;;23.98;49.10;99341.81;5092395;28;20051;-69
2022/07/29 00:26:16;;;;;;;6.30;1.45;;;;;;;23.99;49.38;99356.19;5059018;28;20123;-69
2022/07/29 00:28:42;;;;;;;4.78;1.60;;;;;;;23.90;49.65;99347.63;5058810;28;20042;-69
2022/07/29 00:31:08;;;;;;;5.82;1.50;;;;;;;23.75;49.38;99335.75;5075830;28;20043;-72
2022/07/29 00:33:33;;;;;;;5.03;1.63;;;;;;;23.84;49.66;99356.78;5059072;28;20036;-69
2022/07/29 00:35:59;;;;;;;6.28;1.50;;;;;;;23.79;49.17;99355.88;5092193;28;20047;-68
2022/07/29 00:38:25;;;;;;;4.25;1.38;;;;;;;23.59;48.97;99347.47;5041414;28;20048;-68
2022/07/29 00:40:50;;;;;;;8.90;1.63;;;;;;;23.55;48.95;99338.19;5058477;28;20441;-69
2022/07/29 00:43:17;;;;;;;11.02;1.63;;;;;;;23.66;48.94;99361.66;5058550;28;20097;-68
2022/07/29 00:45:42;;;;;;;6.93;1.48;;;;;;;23.56;49.33;99334.38;5058472;28;20040;-68
2022/07/29 00:48:11;;;;;;;4.38;1.30;;;;;;;23.61;48.78;99367.00;5075492;28;20202;-69
2022/07/29 00:50:37;;;;;;;5.38;1.30;;;;;;;23.70;48.97;99363.63;5058706;28;20489;-69
2022/07/29 00:53:06;;;;;;;3.15;1.50;;;;;;;23.76;48.61;99383.50;5093301;28;20043;-69
2022/07/29 00:55:31;;;;;;;9.23;1.40;;;;;;;23.57;49.65;99376.72;5091846;28;20056;-68
2022/07/29 00:57:58;;;;;;;4.03;1.23;;;;;;;23.64;48.75;99380.91;5058063;28;20420;-69
2022/07/29 01:00:26;;;;;;;4.82;1.38;;;;;;;23.54;48.97;99361.75;5091706;28;20139;-68
2022/07/29 01:02:52;;;;;;;5.70;1.35;;;;;;;23.46;48.98;99359.47;5058318;28;20416;-68
2022/07/29 01:05:21;;;;;;;10.30;1.63;;;;;;;23.69;49.73;99380.16;5058139;28;20210;-68
2022/07/29 01:07:49;;;;;;;3.38;1.73;;;;;;;23.63;49.30;99383.84;5074683;28;20400;-69
2022/07/29 01:10:16;;;;;;;2.63;1.40;;;;;;;23.55;49.38;99381.56;5092712;28;20121;-69
2022/07/29 01:12:43;;;;;;;4.25;1.27;;;;;;;23.50;49.56;99366.03;5057957;28;20050;-70
2022/07/29 01:15:09;;;;;;;3.10;1.30;;;;;;;23.47;49.34;99390.09;5074841;28;20154;-69
2022/07/29 01:17:58;;;;;;;7.53;1.50;;;;;;;23.70;48.94;99388.03;5057857;28;20473;-70
2022/07/29 01:20:53;;;;;;;6.32;1.20;;;;;;;23.45;49.20;99374.06;5074706;28;20113;-69
2022/07/29 01:23:48;;;;;;;3.25;1.25;;;;;;;23.44;49.38;99387.88;5074916;28;20040;-69
2022/07/29 01:26:33;;;;;;;3.47;1.38;;;;;;;23.42;49.29;99388.13;5091578;28;20431;-69
2022/07/29 01:29:04;;;;;;;3.38;1.67;;;;;;;23.17;50.20;99401.25;5092668;28;20048;-69
2022/07/29 01:31:56;;;;;;;4.78;1.23;;;;;;;23.43;49.49;99405.22;5057941;28;20076;-69
2022/07/29 01:34:27;;;;;;;3.45;1.45;;;;;;;23.26;50.10;99375.41;5057903;28;20044;-68
2022/07/29 01:37:06;;;;;;;3.33;1.10;;;;;;;23.33;50.23;99388.78;5091269;28;20460;-69
2022/07/29 01:39:37;;;;;;;3.83;1.38;;;;;;;23.31;50.02;99386.31;5074504;28;20047;-68
2022/07/29 01:42:26;;;;;;;5.00;1.50;;;;;;;23.44;49.48;99404.16;5074484;28;20069;-69
2022/07/29 01:45:01;;;;;;;8.60;1.60;;;;;;;23.36;49.36;99396.44;5070748;28;20150;-69
2022/07/29 01:47:37;;;;;;;3.50;1.33;;;;;;;23.22;49.89;99371.50;5090958;28;20051;-68
2022/07/29 01:50:07;;;;;;;8.20;1.50;;;;;;;23.22;49.57;99385.88;5056622;28;20071;-70
2022/07/29 01:52:46;;;;;;;4.97;1.30;;;;;;;23.29;49.46;99391.97;5092139;28;20078;-69
2022/07/29 01:55:16;;;;;;;5.35;1.58;;;;;;;23.20;49.55;99385.28;5074044;28;20050;-69
2022/07/29 01:57:45;;;;;;;6.00;1.48;;;;;;;23.19;50.08;99386.38;5090893;28;20044;-70
2022/07/29 02:00:12;;;;;;;7.32;1.40;;;;;;;22.98;49.68;99378.13;5057294;28;20101;-69
2022/07/29 02:02:40;;;;;;;7.10;1.50;;;;;;;23.03;49.56;99383.66;5074032;28;20050;-69
2022/07/29 02:05:07;;;;;;;4.72;1.70;;;;;;;23.09;49.85;99396.22;5073414;28;20039;-69
2022/07/29 02:07:34;;;;;;;2.08;1.20;;;;;;;23.13;49.17;99397.34;5073589;28;20074;-69
2022/07/29 02:10:02;;;;;;;7.15;1.45;;;;;;;23.13;49.85;99375.69;5073490;28;20101;-69
2022/07/29 02:12:31;;;;;;;2.53;1.27;;;;;;;23.22;49.34;99399.44;5073799;28;20040;-69
2022/07/29 02:15:18;;;;;;;4.22;1.50;;;;;;;23.10;49.22;99379.72;5076458;28;20051;-68
2022/07/29 02:17:49;;;;;;;3.25;1.33;;;;;;;23.16;49.00;99386.03;5073764;28;20058;-73
2022/07/29 02:20:16;;;;;;;4.05;1.42;;;;;;;23.14;49.84;99391.69;5090324;28;20048;-70
2022/07/29 02:22:44;;;;;;;5.35;1.60;;;;;;;23.12;49.80;99399.28;5090489;28;20093;-69
2022/07/29 02:25:10;;;;;;;4.75;1.80;;;;;;;23.05;49.69;99395.88;5090627;28;20044;-68
2022/07/29 02:27:37;;;;;;;6.10;1.65;;;;;;;23.07;50.06;99410.00;5090143;28;20048;-68
2022/07/29 02:30:07;;;;;;;9.15;1.80;;;;;;;22.98;50.40;99380.84;5056479;28;20138;-69
2022/07/29 02:32:35;;;;;;;3.70;1.52;;;;;;;23.18;49.82;99409.13;5056398;28;20404;-68
2022/07/29 02:35:02;;;;;;;5.63;1.85;;;;;;;23.10;50.65;99412.22;5073346;28;20044;-69
2022/07/29 02:37:30;;;;;;;6.32;2.03;;;;;;;23.18;50.40;99408.28;5090101;28;20066;-68
2022/07/29 02:39:57;;;;;;;6.57;1.70;;;;;;;23.21;50.38;99410.50;5091345;28;20382;-69
2022/07/29 02:42:24;;;;;;;3.80;1.63;;;;;;;23.18;50.16;99409.13;5090241;28;20062;-69
2022/07/29 02:44:50;;;;;;;4.53;1.80;;;;;;;23.12;50.45;99415.53;5090027;28;20040;-69
2022/07/29 02:47:31;;;;;;;9.02;1.50;;;;;;;23.36;49.24;99418.94;5091047;28;20044;-74
2022/07/29 02:50:01;;;;;;;3.40;1.75;;;;;;;23.20;50.74;99412.38;5072662;28;20048;-67
2022/07/29 02:52:35;;;;;;;7.20;1.90;;;;;;;23.11;51.06;99416.56;5089805;28;20082;-69
2022/07/29 02:55:24;;;;;;;3.58;1.65;;;;;;;23.49;49.71;99417.78;5056077;28;20066;-69
2022/07/29 02:58:02;;;;;;;5.25;2.13;;;;;;;23.27;49.75;99396.84;5089745;28;20044;-71
2022/07/29 03:00:30;;;;;;;5.72;1.98;;;;;;;23.32;50.25;99423.22;5089522;28;20233;-69
2022/07/29 03:02:58;;;;;;;4.75;2.45;;;;;;;23.25;50.35;99401.69;5072948;28;20052;-69
2022/07/29 03:05:24;;;;;;;7.00;2.08;;;;;;;23.09;50.43;99393.50;5089519;28;20500;-69
2022/07/29 03:07:57;;;;;;;5.63;1.60;;;;;;;23.43;48.99;99421.50;5089585;28;20043;-71
2022/07/29 03:10:25;;;;;;;4.57;1.60;;;;;;;23.46;49.40;99416.41;5089479;28;20067;-71
2022/07/29 03:12:51;;;;;;;5.68;1.85;;;;;;;23.35;49.16;99414.59;5089969;28;20051;-69
2022/07/29 03:15:18;;;;;;;7.20;1.70;;;;;;;23.44;49.39;99415.81;5056443;28;20048;-69
2022/07/29 03:17:44;;;;;;;8.30;2.25;;;;;;;23.42;49.82;99401.69;5072889;28;20381;-70
2022/07/29 03:20:10;;;;;;;5.10;1.70;;;;;;;23.65;49.38;99425.09;5039120;28;20032;-69
2022/07/29 03:22:43;;;;;;;6.78;1.80;;;;;;;23.81;49.20;99425.09;5072886;28;20059;-69
2022/07/29 03:25:12;;;;;;;6.60;1.70;;;;;;;23.90;49.25;99412.75;5090643;28;20055;-69
2022/07/29 03:27:38;;;;;;;5.13;1.75;;;;;;;23.78;49.22;99403.88;5072240;28;20044;-69
2022/07/29 03:30:05;;;;;;;6.80;1.67;;;;;;;23.93;48.51;99403.28;5055904;28;20370;-71
2022/07/29 03:32:31;;;;;;;5.30;1.50;;;;;;;23.87;48.58;99401.56;5089494;28;20048;-70
2022/07/29 03:34:57;;;;;;;6.47;1.60;;;;;;;24.06;47.48;99416.53;5055775;28;20048;-70
2022/07/29 03:37:22;;;;;;;5.32;1.48;;;;;;;24.18;47.66;99426.22;5072336;28;20047;-69
2022/07/29 03:39:49;;;;;;;8.10;1.60;;;;;;;24.45;46.56;99420.84;5039660;28;20052;-71
2022/07/29 03:42:16;;;;;;;5.15;1.55;;;;;;;24.34;46.78;99413.66;5056026;28;20040;-69
2022/07/29 03:44:44;;;;;;;5.03;1.80;;;;;;;24.38;45.73;99395.78;5055738;28;20130;-69
2022/07/29 03:47:11;;;;;;;5.18;1.80;;;;;;;24.51;46.00;99420.66;5089145;28;20408;-69
2022/07/29 03:49:37;;;;;;;3.65;1.50;;;;;;;24.34;45.80;99394.66;5055495;28;20036;-68
2022/07/29 03:52:04;;;;;;;8.30;1.70;;;;;;;24.54;45.58;99436.44;5072629;28;20048;-69
2022/07/29 03:54:30;;;;;;;5.50;1.63;;;;;;;24.55;44.87;99435.38;5072627;28;20424;-69
2022/07/29 03:56:57;;;;;;;5.93;1.65;;;;;;;24.80;44.32;99445.75;5056051;28;20044;-68
2022/07/29 03:59:23;;;;;;;9.95;2.03;;;;;;;24.65;44.14;99438.25;5072416;28;20040;-68
2022/07/29 04:01:48;;;;;;;5.20;1.77;;;;;;;24.76;44.03;99450.03;5089074;28;20078;-68
2022/07/29 04:04:14;;;;;;;4.50;1.55;;;;;;;24.85;43.46;99457.50;5055740;28;20501;-69
2022/07/29 04:06:42;;;;;;;4.15;1.45;;;;;;;25.08;43.26;99464.53;5072305;28;20393;-69
2022/07/29 04:09:08;;;;;;;4.10;1.65;;;;;;;24.92;43.25;99435.56;5072095;28;20040;-68
2022/07/29 04:11:36;;;;;;;6.63;2.17;;;;;;;25.08;43.92;99442.78;5089304;28;20043;-70
2022/07/29 04:14:01;;;;;;;6.85;1.63;;;;;;;25.09;42.88;99459.91;5090313;28;20394;-68
2022/07/29 04:16:27;;;;;;;6.93;1.77;;;;;;;25.05;43.11;99439.78;5042378;28;20043;-69
2022/07/29 04:18:53;;;;;;;6.63;1.70;;;;;;;25.08;42.64;99448.22;5059276;28;20500;-69
2022/07/29 04:21:18;;;;;;;7.40;1.95;;;;;;;25.14;42.94;99449.91;5042747;28;20058;-69
2022/07/29 04:23:48;;;;;;;9.43;1.90;;;;;;;25.16;42.27;99464.06;5058946;28;20040;-69
2022/07/29 04:26:14;;;;;;;10.30;2.00;;;;;;;25.21;42.62;99457.88;5092226;28;20476;-69
2022/07/29 04:28:43;;;;;;;8.82;1.50;;;;;;;25.13;42.30;99467.31;5075725;28;20481;-69
2022/07/29 04:31:09;;;;;;;7.50;1.42;;;;;;;25.15;42.21;99475.22;5075321;28;20051;-70
2022/07/29 04:33:35;;;;;;;3.55;1.20;;;;;;;24.99;42.10;99454.41;5092555;28;20071;-70
2022/07/29 04:36:00;;;;;;;4.68;1.60;;;;;;;25.20;41.90;99470.63;5041978;28;20068;-69
2022/07/29 04:38:26;;;;;;;5.55;1.27;;;;;;;25.23;42.06;99477.47;5058415;28;20040;-69
2022/07/29 04:40:52;;;;;;;5.47;1.63;;;;;;;25.29;41.75;99480.00;5075115;28;20052;-75
2022/07/29 04:43:18;;;;;;;5.55;1.23;;;;;;;25.23;41.07;99472.03;5042243;28;20113;-70
2022/07/29 04:45:43;;;;;;;5.80;1.92;;;;;;;25.40;41.22;99480.94;5041937;28;20071;-69
2022/07/29 04:48:09;;;;;;;7.78;1.98;;;;;;;25.39;40.58;99482.81;5042507;28;20051;-69
2022/07/29 04:50:45;;;;;;;3.05;1.23;;;;;;;25.60;41.05;99490.09;5059076;28;20044;-70
2022/07/29 04:53:11;;;;;;;4.72;1.48;;;;;;;25.40;41.09;99473.59;5092781;28;20083;-69
2022/07/29 04:55:54;;;;;;;5.25;1.48;;;;;;;25.50;40.66;99478.28;5058313;28;20071;-70
2022/07/29 04:58:23;;;;;;;6.75;1.45;;;;;;;25.72;40.99;99488.03;5078413;28;20055;-70
2022/07/29 05:00:49;;;;;;;5.53;3.17;;;;;;;25.79;40.87;99468.75;5092006;28;20087;-69
2022/07/29 05:03:15;;;;;;;3.92;1.30;;;;;;;25.90;40.97;99481.34;5093125;28;20043;-70
2022/07/29 05:05:42;;;;;;;6.97;1.55;;;;;;;25.87;41.36;99485.44;5075152;28;20044;-69
2022/07/29 05:08:07;;;;;;;3.95;1.20;;;;;;;25.99;41.69;99477.94;5058607;28;20043;-70
2022/07/29 05:10:37;;;;;;;9.63;1.52;;;;;;;26.00;40.58;99482.28;5058139;28;20123;-69
2022/07/29 05:13:07;;;;;;;4.95;1.50;;;;;;;25.90;40.78;99484.91;5092761;28;20071;-70
2022/07/29 05:15:36;;;;;;;1.92;1.05;;;;;;;26.06;40.20;99477.72;5074536;28;20071;-69
2022/07/29 05:18:03;;;;;;;3.90;1.17;;;;;;;26.01;40.97;99488.56;5074745;28;20035;-70
2022/07/29 05:20:30;;;;;;;9.93;1.40;;;;;;;25.85;40.17;99490.31;5091191;28;20056;-69
2022/07/29 05:22:57;;;;;;;7.03;1.35;;;;;;;25.89;40.23;99496.84;5092976;28;20047;-70
2022/07/29 05:25:24;;;;;;;8.50;1.35;;;;;;;25.99;40.25;99488.81;5091280;28;20055;-69
2022/07/29 05:27:49;;;;;;;5.60;1.60;;;;;;;25.84;40.09;99496.00;5074954;28;20529;-69
2022/07/29 05:30:15;;;;;;;6.55;1.25;;;;;;;26.05;40.00;99487.78;5041218;28;20040;-70
2022/07/29 05:32:41;;;;;;;6.85;1.20;;;;;;;26.17;39.79;99499.28;5074045;28;20032;-69
2022/07/29 05:35:07;;;;;;;7.00;1.55;;;;;;;26.17;39.01;99495.75;5074038;28;20040;-69
2022/07/29 05:37:33;;;;;;;3.83;1.40;;;;;;;26.29;39.58;99494.44;5057682;28;20088;-69
2022/07/29 05:39:59;;;;;;;4.82;1.38;;;;;;;26.38;39.46;99497.50;5090627;28;20420;-69
2022/07/29 05:42:25;;;;;;;4.72;1.20;;;;;;;26.56;39.81;99491.63;5074294;28;20127;-69
2022/07/29 05:44:51;;;;;;;4.70;1.38;;;;;;;26.55;39.37;99498.16;5092599;28;20032;-69
2022/07/29 05:47:16;;;;;;;4.75;1.67;;;;;;;26.55;39.33;99489.97;5057321;28;20097;-69
2022/07/29 05:49:42;;;;;;;4.03;1.38;;;;;;;26.62;39.83;99490.56;5040542;28;20047;-69
2022/07/29 05:52:08;;;;;;;7.25;1.35;;;;;;;26.78;39.28;99489.56;5090562;28;20106;-70
2022/07/29 05:54:35;;;;;;;1.65;1.15;;;;;;;26.93;39.19;99492.34;5073748;28;20054;-69
2022/07/29 05:57:00;;;;;;;5.53;1.38;;;;;;;26.94;38.63;99483.06;5073629;28;20147;-68
2022/07/29 05:59:26;;;;;;;3.17;1.42;;;;;;;27.25;38.28;99492.16;5073364;28;20134;-69
2022/07/29 06:01:52;;;;;;;6.57;2.33;;;;;;;27.40;37.80;99500.44;5090498;28;20075;-69
2022/07/29 06:04:18;;;;;;;5.82;1.60;;;;;;;27.61;37.43;99502.09;5056769;28;20093;-68
2022/07/29 06:06:43;;;;;;;3.33;1.00;;;;;;;27.86;37.65;99499.38;5073490;28;20046;-68
2022/07/29 06:09:10;;;;;;;4.80;1.30;;;;;;;28.05;37.13;99496.94;5073459;28;20508;-69
2022/07/29 06:11:36;;;;;;;3.88;1.27;;;;;;;28.10;36.90;99500.47;5090034;28;20408;-69
2022/07/29 06:14:02;;;;;;;4.15;1.40;;;;;;;27.87;36.24;99504.59;5056673;28;20051;-69
2022/07/29 06:16:28;;;;;;;6.25;1.27;;;;;;;27.64;36.81;99501.53;5056714;28;20048;-69
2022/07/29 06:18:54;;;;;;;3.05;1.20;;;;;;;27.67;37.01;99501.00;5056603;28;20055;-69
2022/07/29 06:21:20;;;;;;;9.48;5.38;;;;;;;27.74;37.09;99502.34;5039760;28;20063;-69
2022/07/29 06:23:46;;;;;;;5.25;1.30;;;;;;;27.59;36.98;99491.44;5073221;28;20044;-69
2022/07/29 06:26:12;;;;;;;5.00;1.13;;;;;;;27.63;36.50;99499.91;5073075;28;20492;-68
2022/07/29 06:28:37;;;;;;;5.05;1.10;;;;;;;27.62;36.67;99492.78;5056345;28;20042;-69
2022/07/29 06:31:03;;;;;;;3.72;1.52;;;;;;;27.80;36.84;99490.34;5089676;28;20050;-69
2022/07/29 06:33:29;;;;;;;7.10;1.50;;;;;;;28.01;36.10;99499.38;5039770;28;20049;-70
2022/07/29 06:35:55;;;;;;;3.75;1.30;;;;;;;28.20;35.81;99489.53;5056312;28;20043;-69
2022/07/29 06:38:21;;;;;;;4.43;1.13;;;;;;;28.34;35.65;99484.31;5056083;28;20056;-69
2022/07/29 06:43:37;;;;;;;6.03;0.95;;;;;;;28.56;33.40;99488.38;5090234;28;20073;-69
2022/07/29 06:46:05;;;;;;;3.75;0.95;;;;;;;28.45;33.18;99484.00;5089957;28;20105;-69
2022/07/29 06:48:31;;;;;;;3.13;0.90;;;;;;;28.32;32.81;99470.94;5073102;28;20040;-69
2022/07/29 06:50:57;;;;;;;1.50;1.05;;;;;;;28.45;33.28;99464.88;5040000;28;20094;-69
2022/07/29 06:53:23;;;;;;;5.53;1.17;;;;;;;28.35;32.46;99470.38;5073071;28;20036;-69
2022/07/29 06:55:49;;;;;;;1.45;0.93;;;;;;;28.57;32.14;99461.88;5073018;28;20044;-69
2022/07/29 06:58:17;;;;;;;4.00;1.08;;;;;;;28.55;32.05;99475.81;5072925;28;20044;-69
2022/07/29 07:00:55;;;;;;;2.22;1.05;;;;;;;28.60;31.26;99478.50;5074925;28;20059;-70
2022/07/29 07:03:22;;;;;;;3.20;0.95;;;;;;;28.83;31.20;99477.06;5089924;28;20036;-69
2022/07/29 07:05:48;;;;;;;3.45;1.00;;;;;;;29.05;30.98;99475.63;5056237;28;20040;-69
2022/07/29 07:08:15;;;;;;;5.25;1.05;;;;;;;29.00;31.02;99466.59;5039550;28;20556;-69
2022/07/29 07:10:42;;;;;;;5.22;1.42;;;;;;;29.30;30.41;99480.94;5089472;28;20054;-68
2022/07/29 07:13:08;;;;;;;7.32;1.15;;;;;;;29.36;29.35;99446.16;5055889;28;20104;-69
2022/07/29 07:15:35;;;;;;;4.35;1.13;;;;;;;29.63;29.50;99446.50;5072670;28;20044;-68
2022/07/29 07:18:00;;;;;;;5.72;1.00;;;;;;;29.86;29.57;99464.91;5073198;28;20043;-69
2022/07/29 07:20:26;;;;;;;2.47;2.08;;;;;;;30.19;29.21;99447.63;5072899;28;20048;-68
2022/07/29 07:22:52;;;;;;;7.07;1.08;;;;;;;30.63;28.72;99452.94;5089546;28;20097;-69
2022/07/29 07:25:18;;;;;;;12.40;6.38;;;;;;;31.55;27.21;99454.97;5073058;28;20505;-69
2022/07/29 07:27:46;;;;;;;2.50;1.80;;;;;;;32.46;26.17;99454.19;5073247;28;20051;-69
2022/07/29 07:30:13;;;;;;;1.95;1.10;;;;;;;33.83;24.15;99450.81;5089428;28;20051;-69
2022/07/29 07:32:41;;;;;;;6.85;1.00;;;;;;;35.34;21.48;99448.19;5039306;28;20044;-69
2022/07/29 07:35:10;;;;;;;1.63;0.90;;;;;;;35.98;20.88;99456.63;5089318;28;20074;-69
2022/07/29 07:37:37;;;;;;;1.63;1.00;;;;;;;37.69;19.57;99440.69;5089424;28;20048;-68
2022/07/29 07:40:03;;;;;;;3.03;1.10;;;;;;;37.84;18.71;99442.84;5090220;28;20405;-73
2022/07/29 07:42:30;;;;;;;4.95;1.17;;;;;;;39.46;17.14;99442.69;5089223;28;20055;-69
2022/07/29 07:44:56;;;;;;;9.25;1.30;;;;;;;41.95;15.06;99442.50;5072228;28;20409;-69
2022/07/29 07:47:23;;;;;;;1.60;0.85;;;;;;;42.83;13.79;99444.84;5072494;28;20048;-69
2022/07/29 07:49:50;;;;;;;4.20;1.15;;;;;;;42.33;14.26;99446.03;5091915;28;20051;-69
2022/07/29 07:52:16;;;;;;;3.83;0.90;;;;;;;43.37;13.42;99453.63;5076228;28;20185;-69
2022/07/29 07:54:43;;;;;;;4.75;0.80;;;;;;;44.28;12.38;99449.16;5094116;28;20051;-71
2022/07/29 07:57:09;;;;;;;3.67;0.80;;;;;;;44.38;12.03;99451.22;5076140;28;20485;-70
2022/07/29 07:59:35;;;;;;;6.57;1.13;;;;;;;42.18;13.08;99452.47;5092993;28;20445;-70
2022/07/29 08:02:01;;;;;;;5.63;1.13;;;;;;;40.56;14.54;99464.00;5094331;28;20048;-69
2022/07/29 08:04:27;;;;;;;4.57;1.25;;;;;;;41.93;13.97;99459.59;5076137;28;20051;-70
2022/07/29 08:06:54;;;;;;;4.25;1.20;;;;;;;44.37;12.13;99469.22;5076263;28;20043;-69
2022/07/29 08:09:20;;;;;;;3.03;1.00;;;;;;;46.60;10.41;99469.97;5093036;28;20044;-70
2022/07/29 08:11:46;;;;;;;3.85;0.90;;;;;;;48.10;9.15;99462.34;5059374;28;20099;-71
2022/07/29 08:14:13;;;;;;;2.70;0.90;;;;;;;49.05;8.28;99450.28;5042399;28;20127;-70
2022/07/29 08:16:40;;;;;;;8.00;0.93;;;;;;;49.34;7.84;99454.41;5092588;28;20139;-70
2022/07/29 08:19:06;;;;;;;3.55;0.90;;;;;;;48.16;8.39;99438.13;5093654;28;20044;-69
2022/07/29 08:21:32;;;;;;;3.55;0.80;;;;;;;46.66;9.21;99453.50;5058703;28;20042;-69
2022/07/29 08:26:43;;;;;;;5.95;0.80;;;;;;;45.56;9.67;99438.44;5092529;28;20490;-69
2022/07/29 08:29:09;;;;;;;2.80;0.70;;;;;;;44.96;9.60;99439.28;5092046;28;20058;-70
2022/07/29 08:31:36;;;;;;;7.00;0.70;;;;;;;43.31;11.03;99434.75;5059121;28;20511;-72
2022/07/29 08:34:03;;;;;;;2.60;0.70;;;;;;;41.47;12.39;99430.72;5093921;28;20414;-69
2022/07/29 08:36:29;;;;;;;1.05;0.57;;;;;;;39.89;13.42;99420.47;5092152;28;20044;-69
2022/07/29 08:38:54;;;;;;;1.70;0.93;;;;;;;38.27;14.62;99412.66;5075237;28;20314;-68
2022/07/29 08:41:21;;;;;;;3.90;1.08;;;;;;;37.35;15.57;99387.53;5041830;28;20428;-69
2022/07/29 08:43:47;;;;;;;2.95;0.80;;;;;;;37.11;16.23;99400.09;5075227;28;20059;-68
2022/07/29 08:46:13;;;;;;;6.43;0.98;;;;;;;36.68;16.81;99399.56;5075285;28;20040;-69
2022/07/29 08:48:40;;;;;;;2.13;1.20;;;;;;;37.64;15.84;99432.59;5091779;28;20040;-69
2022/07/29 08:51:07;;;;;;;5.38;4.15;;;;;;;40.12;14.41;99432.63;5093230;28;20071;-73
2022/07/29 08:53:33;;;;;;;5.82;1.60;;;;;;;41.14;13.32;99443.53;5075111;28;20044;-68
2022/07/29 08:55:59;;;;;;;1.83;0.80;;;;;;;43.04;11.96;99434.00;5074759;28;20043;-69
2022/07/29 08:58:26;;;;;;;2.75;1.10;;;;;;;42.82;11.84;99426.47;5074517;28;20044;-69
2022/07/29 09:00:54;;;;;;;4.57;1.20;;;;;;;41.82;12.33;99429.84;5074293;28;20060;-68
2022/07/29 09:03:22;;;;;;;5.35;1.10;;;;;;;42.11;11.93;99424.44;5091530;28;20477;-69
2022/07/29 09:05:51;;;;;;;9.52;1.30;;;;;;;43.87;10.84;99421.47;5092584;28;20039;-68
2022/07/29 09:08:17;;;;;;;1.90;0.90;;;;;;;45.56;9.86;99423.59;5091620;28;20044;-69
2022/07/29 09:10:44;;;;;;;7.18;0.80;;;;;;;46.69;9.08;99427.41;5057888;28;20075;-70
2022/07/29 09:13:10;;;;;;;3.00;0.70;;;;;;;47.44;8.38;99427.63;5074239;28;20050;-69
2022/07/29 09:15:35;;;;;;;3.90;0.80;;;;;;;48.48;8.33;99427.44;5074328;28;20040;-70
2022/07/29 09:18:02;;;;;;;4.07;0.80;;;;;;;49.53;7.07;99427.56;5074085;28;20040;-69
2022/07/29 09:21:57;;;;;;;3.33;1.10;;;;;;;49.81;7.15;99432.84;5040882;28;20726;-69
2022/07/29 09:23:13;;;;;;;6.43;0.80;;;;;;;49.67;7.32;99431.00;5077353;28;20036;-69
2022/07/29 09:25:40;;;;;;;1.95;0.75;;;;;;;50.86;5.72;99430.31;5057684;28;20078;-69
2022/07/29 09:28:13;;;;;;;5.30;0.65;;;;;;;50.14;6.25;99429.13;5074614;28;20112;-70
2022/07/29 09:30:52;;;;;;;2.08;0.70;;;;;;;49.16;7.18;99407.84;5092259;28;20052;-70
2022/07/29 09:33:18;;;;;;;;;;;;;;;47.18;8.19;99424.53;5057859;28;20459;-69
2022/07/29 09:35:44;;;;;;;3.25;0.73;;;;;;;45.89;9.48;99421.31;5090956;28;19920;-69
2022/07/29 09:38:11;;;;;;;2.63;0.80;;;;;;;47.23;8.42;99424.91;5073894;28;20063;-70
2022/07/29 09:40:37;;;;;;;3.47;0.90;;;;;;;49.08;7.63;99436.16;5091015;28;20062;-69
2022/07/29 09:43:12;;;;;;;5.07;0.80;;;;;;;50.25;6.38;99426.94;5090858;28;20036;-68
2022/07/29 09:45:38;;;;;;;1.48;0.60;;;;;;;50.19;6.15;99425.81;5074086;28;20094;-69
2022/07/29 09:48:20;;;;;;;4.85;0.90;;;;;;;48.53;7.09;99424.16;5074073;28;20501;-69
2022/07/29 09:50:49;;;;;;;2.55;0.90;;;;;;;46.28;8.91;99427.00;5090638;28;20040;-69
2022/07/29 09:53:36;;;;;;;4.00;0.90;;;;;;;48.21;7.93;99426.41;5040878;28;20067;-69
2022/07/29 09:56:03;;;;;;;5.13;0.82;;;;;;;49.54;7.51;99431.97;5074159;28;20118;-69
2022/07/29 09:58:34;;;;;;;2.92;0.88;;;;;;;49.03;7.35;99418.88;5090323;28;20050;-70
2022/07/29 10:01:00;;;;;;;3.85;1.00;;;;;;;48.73;7.15;99441.31;5091655;28;20063;-68
2022/07/29 10:03:26;;;;;;;2.70;0.80;;;;;;;48.89;7.06;99427.44;5073829;28;20493;-70
2022/07/29 10:06:09;;;;;;;0.57;0.57;;;;;;;50.00;6.33;99429.34;5040632;28;20032;-70
2022/07/29 10:08:35;;;;;;;3.22;1.00;;;;;;;50.72;6.30;99428.56;5056692;28;20463;-70
2022/07/29 10:11:19;;;;;;;3.38;0.80;;;;;;;51.53;5.85;99410.00;5056403;28;20101;-69
2022/07/29 10:13:47;;;;;;;4.13;0.77;;;;;;;51.25;5.84;99416.25;5073466;28;20048;-69
2022/07/29 10:16:14;;;;;;;1.17;0.90;;;;;;;51.84;5.87;99423.47;5073471;28;20401;-69
2022/07/29 10:18:44;;;;;;;2.40;0.88;;;;;;;51.62;5.44;99394.00;5091798;28;20048;-69
2022/07/29 10:21:10;;;;;;;1.95;0.75;;;;;;;51.86;5.85;99429.50;5073515;28;20054;-69
2022/07/29 10:23:36;;;;;;;4.25;0.95;;;;;;;52.17;5.82;99409.34;5090199;28;20044;-70
2022/07/29 10:26:03;;;;;;;1.70;0.70;;;;;;;52.61;5.03;99411.47;5090024;28;20101;-69
2022/07/29 10:28:32;;;;;;;1.63;0.77;;;;;;;51.97;5.26;99415.88;5073289;28;20407;-69
2022/07/29 10:31:15;;;;;;;6.13;0.70;;;;;;;50.05;5.74;99412.72;5056411;28;20048;-69
2022/07/29 10:33:52;;;;;;;1.60;0.60;;;;;;;47.78;6.89;99408.16;5056816;28;20048;-69
2022/07/29 10:36:28;;;;;;;1.90;0.60;;;;;;;47.90;7.04;99393.63;5073256;28;20036;-70
2022/07/29 10:39:06;;;;;;;3.33;0.70;;;;;;;47.94;7.53;99393.63;5090067;28;20492;-70
2022/07/29 10:41:47;;;;;;;3.75;0.70;;;;;;;48.02;7.16;99395.16;5056302;28;20044;-70
2022/07/29 10:44:19;;;;;;;2.28;0.65;;;;;;;48.13;7.56;99391.06;5056408;28;20040;-71
2022/07/29 10:46:45;;;;;;;4.30;0.65;;;;;;;48.68;7.24;99377.72;5089669;28;20468;-71
2022/07/29 10:49:16;;;;;;;2.42;0.90;;;;;;;49.21;7.26;99405.34;5090139;28;20040;-70
2022/07/29 10:52:03;;;;;;;2.17;0.80;;;;;;;50.70;6.03;99410.44;5091226;28;20074;-70
2022/07/29 10:54:34;;;;;;;4.15;0.60;;;;;;;51.72;4.63;99409.19;5056309;28;20051;-69
2022/07/29 10:57:21;;;;;;;3.08;1.15;;;;;;;51.49;4.76;99409.25;5072737;28;20039;-70
2022/07/29 11:00:11;;;;;;;4.18;0.63;;;;;;;50.53;5.55;99401.81;5090891;28;20051;-71
2022/07/29 11:02:40;;;;;;;1.75;0.70;;;;;;;50.59;5.45;99400.06;5089353;28;20105;-70
2022/07/29 11:05:08;;;;;;;1.38;0.60;;;;;;;50.72;5.46;99408.75;5056025;28;20130;-70
2022/07/29 11:07:35;;;;;;;2.75;0.75;;;;;;;50.73;5.80;99412.41;5072987;28;20501;-70
2022/07/29 11:10:16;;;;;;;3.88;0.68;;;;;;;51.12;5.25;99418.13;5089410;28;20093;-70
2022/07/29 11:12:42;;;;;;;2.58;0.60;;;;;;;50.55;5.83;99407.84;5090865;28;20054;-71
2022/07/29 11:15:09;;;;;;;4.50;0.80;;;;;;;47.87;7.15;99399.28;5055784;28;20138;-69
2022/07/29 11:17:53;;;;;;;1.40;0.60;;;;;;;45.48;8.69;99391.91;5090746;28;20048;-69
2022/07/29 11:20:42;;;;;;;1.35;0.80;;;;;;;43.75;9.49;99400.16;5072442;28;20140;-69
2022/07/29 11:23:27;;;;;;;4.07;0.47;;;;;;;42.69;10.30;99388.72;5092321;28;20081;-69
2022/07/29 11:28:53;;;;;;;6.63;0.98;;;;;;;41.57;11.07;99393.91;5093642;28;20104;-69
2022/07/29 11:31:44;;;;;;;2.00;0.90;;;;;;;40.99;11.85;99375.53;5060009;28;20067;-70
2022/07/29 11:34:21;;;;;;;2.88;0.90;;;;;;;40.59;12.62;99397.25;5093485;28;20096;-69
2022/07/29 11:37:09;;;;;;;2.28;1.25;;;;;;;40.05;13.28;99390.69;5076815;28;20394;-69
2022/07/29 11:39:38;;;;;;;3.03;1.27;;;;;;;38.72;13.55;99391.16;5094569;28;20177;-69
2022/07/29 11:42:16;;;;;;;3.13;1.50;;;;;;;37.87;14.35;99389.47;5076626;28;20048;-70
2022/07/29 11:45:00;;;;;;;2.25;0.80;;;;;;;36.99;15.31;99388.13;5059917;28;20052;-69
2022/07/29 11:47:29;;;;;;;2.33;0.90;;;;;;;36.43;16.16;99385.88;5076076;28;20138;-69
2022/07/29 11:49:56;;;;;;;3.50;0.80;;;;;;;35.93;16.49;99401.50;5076207;28;20138;-69
2022/07/29 11:52:23;;;;;;;1.42;0.73;;;;;;;35.48;16.70;99396.38;5093117;28;20257;-68